Airfield :
LOGIN :

Register | Disclaimer

   EN    FR    IT 

 










Legend :    VFR   Marginal VFR   IFR   Intensive IFR   Very Intensive IFR
Visi :
Ceiling :
>= 8 km
>= 3000ft
5 to 8 km
1000 to 3000 ft
1500m to 5 km
500 to 1000 ft
800 to 1500m
200 to 500 ft
< 800m
< 200 ft
Symbols :   Thunderstorms  Fog  Heavy snow  Heavy precipitations  Wind > 20 kt
SIGMETs :     Misc.  Thunderstorms  Icing  Turbulence  Mountain Waves  Volcanic Ashes






- Airport Elevation : 297 ft
- IATA code : UIP


LFRQ - Quimper Pluguffan

CURRENT METAR :
  • 261030Z AUTO 10004KT 060V130 2100 BR BKN003 02/01 Q1036 BECMG 8000 NSW BKN006

EXPIRED METARs :
  • 261000Z AUTO 11004KT 070V140 2500 BR BKN003 01/01 Q1036 BECMG 9999 NSW BKN006
  • 260930Z AUTO 12003KT 080V150 2200 BR FEW003 01/01 Q1036 BECMG 9999 NSW BKN006
  • 260900Z AUTO 10003KT 070V150 3300 BR NSC 01/01 Q1036 BECMG 9999 NSW BKN006
  • 260830Z AUTO 10002KT 2900 BR NSC 00/00 Q1035 BECMG 9999 NSW BKN006
  • 260800Z AUTO 05001KT 2100 BR NSC M00/M00 Q1035 BECMG 9999 NSW BKN006

TAF AMD TAF LFRQ
Valid from the 26 at 10:00 until the 27 at 06:00 UTC


261013Z 2610/2706 07003KT 2500 BR OVC003
BECMG 2610/2613 8000 NSW BKN006
BECMG 2613/2615 BKN018
BECMG 2621/2623 3000 BR BKN008
TEMPO 2700/2706 0500 FG VV///



MET'MAP, your aeronautical weather chart ! - Copyright ORBIFLY December 2007 - Disclaimer

ORBIFLY MET'MAP TEAM :

Programming & Development : Alexandra Zaïnal
Original concept : Baudouin d'Aumeries
Technical & hardware support : Manuel Goepfert
Assistance : Marc-Olivier Méhu

Contact : metmap@orbifly.com




SOURCES & CREDITS :

   NOAA